createdAt,value
2019-04-05T00:00:35.270Z,10.23
2019-04-05T00:03:05.586Z,10.47
2019-04-05T00:05:34.588Z,9.90
2019-04-05T00:08:03.712Z,10.93
2019-04-05T00:10:33.008Z,10.20
2019-04-05T00:13:02.167Z,9.30
2019-04-05T00:15:31.319Z,10.00
2019-04-05T00:18:00.456Z,9.47
2019-04-05T00:20:29.341Z,9.90
2019-04-05T00:22:58.211Z,9.27
2019-04-05T00:25:27.235Z,10.00
2019-04-05T00:27:56.057Z,9.83
2019-04-05T00:30:24.865Z,9.37
2019-04-05T00:32:53.946Z,9.47
2019-04-05T00:35:22.803Z,10.13
2019-04-05T00:37:51.742Z,9.07
2019-04-05T00:40:20.610Z,8.93
2019-04-05T00:42:49.772Z,10.03
2019-04-05T00:45:28.014Z,9.53
2019-04-05T00:47:49.382Z,9.77
2019-04-05T00:50:18.497Z,9.60
2019-04-05T00:52:47.239Z,9.73
2019-04-05T00:55:16.124Z,9.63
2019-04-05T00:57:45.131Z,9.67
2019-04-05T01:00:14.183Z,10.37
2019-04-05T01:02:43.045Z,9.47
2019-04-05T01:05:11.903Z,10.20
2019-04-05T01:07:40.694Z,10.27
2019-04-05T01:10:10.093Z,10.13
2019-04-05T01:12:39.951Z,10.40
2019-04-05T01:15:09.152Z,10.13
2019-04-05T01:17:37.958Z,10.43
2019-04-05T01:20:07.233Z,10.17
2019-04-05T01:22:36.218Z,10.60
2019-04-05T01:25:05.578Z,10.20
2019-04-05T01:27:34.797Z,11.07
2019-04-05T01:30:04.610Z,10.90
2019-04-05T01:32:33.773Z,11.80
2019-04-05T01:35:02.698Z,11.20
2019-04-05T01:37:31.547Z,12.10
2019-04-05T01:40:00.736Z,12.00
2019-04-05T01:42:30.240Z,12.40
2019-04-05T01:44:59.513Z,12.97
2019-04-05T01:47:28.568Z,12.67
2019-04-05T01:49:57.537Z,12.37
2019-04-05T01:52:26.326Z,13.00
2019-04-05T01:54:55.249Z,13.97
2019-04-05T01:57:24.306Z,13.43
2019-04-05T01:59:53.507Z,13.43
2019-04-05T02:02:22.539Z,14.17
2019-04-05T02:04:52.911Z,13.40
2019-04-05T02:07:21.983Z,14.00
2019-04-05T02:09:50.787Z,13.83
2019-04-05T02:12:20.403Z,14.37
2019-04-05T02:14:49.190Z,13.80
2019-04-05T02:17:18.101Z,15.70
2019-04-05T02:19:46.967Z,14.80
2019-04-05T02:22:16.399Z,14.60
2019-04-05T02:24:45.284Z,15.33
2019-04-05T02:27:14.549Z,14.47
2019-04-05T02:29:43.345Z,15.23
2019-04-05T02:32:12.571Z,15.23
2019-04-05T02:34:41.481Z,15.30
2019-04-05T02:37:10.250Z,16.47
2019-04-05T02:39:39.081Z,14.93
2019-04-05T02:42:08.845Z,15.17
2019-04-05T02:44:38.122Z,15.67
2019-04-05T02:47:07.222Z,16.57
2019-04-05T02:49:36.259Z,16.20
2019-04-05T02:52:05.336Z,15.97
2019-04-05T02:54:34.558Z,16.43
2019-04-05T02:57:03.790Z,15.47
2019-04-05T02:59:33.517Z,16.17
2019-04-05T03:02:02.731Z,14.83
2019-04-05T03:04:31.905Z,16.10
2019-04-05T03:07:01.164Z,15.47
2019-04-05T03:09:30.191Z,16.37
2019-04-05T03:11:59.366Z,17.00
2019-04-05T03:14:28.810Z,16.60
2019-04-05T03:16:57.880Z,17.43
2019-04-05T03:19:29.660Z,15.87
2019-04-05T03:22:03.750Z,17.70
2019-04-05T03:24:34.117Z,18.30
2019-04-05T03:27:05.058Z,17.83
2019-04-05T03:29:34.801Z,18.13
2019-04-05T03:32:03.856Z,17.77
2019-04-05T03:34:33.644Z,17.93
2019-04-05T03:37:02.963Z,17.57
2019-04-05T03:39:32.270Z,18.67
2019-04-05T03:42:01.593Z,18.50
2019-04-05T03:44:30.839Z,18.73
2019-04-05T03:46:59.911Z,18.90
2019-04-05T03:49:29.536Z,19.37
2019-04-05T03:51:58.395Z,20.63
2019-04-05T03:54:27.298Z,19.77
2019-04-05T03:56:56.329Z,20.37
2019-04-05T03:59:25.473Z,20.27
2019-04-05T04:01:55.595Z,20.13
2019-04-05T04:04:24.715Z,21.50
2019-04-05T04:06:54.469Z,20.63
2019-04-05T04:09:24.081Z,21.67
2019-04-05T04:11:53.378Z,20.80
2019-04-05T04:14:22.851Z,20.37
2019-04-05T04:16:53.265Z,20.80
2019-04-05T04:19:22.199Z,19.70
2019-04-05T04:22:25.343Z,20.33
2019-04-05T04:24:54.210Z,19.00
2019-04-05T04:27:23.786Z,20.17
2019-04-05T04:29:53.087Z,20.40
2019-04-05T04:32:21.973Z,21.13
2019-04-05T04:34:51.473Z,20.47
2019-04-05T04:37:20.416Z,21.07
2019-04-05T04:39:49.914Z,20.30
2019-04-05T04:42:19.088Z,21.30
2019-04-05T04:44:47.898Z,20.53
2019-04-05T04:47:26.179Z,20.40
2019-04-05T04:49:48.074Z,19.87
2019-04-05T04:52:17.386Z,21.10
2019-04-05T04:54:46.699Z,21.03
2019-04-05T04:57:15.536Z,21.07
2019-04-05T04:59:44.357Z,20.20
2019-04-05T05:02:14.767Z,22.33
2019-04-05T05:04:43.961Z,21.70
2019-04-05T05:07:13.410Z,20.97
2019-04-05T05:09:42.871Z,20.90
2019-04-05T05:12:12.080Z,18.87
2019-04-05T05:14:42.454Z,21.20
2019-04-05T05:17:11.418Z,20.70
2019-04-05T05:19:40.980Z,19.97
2019-04-05T05:22:09.938Z,21.00
2019-04-05T05:24:39.554Z,19.90
2019-04-05T05:27:09.491Z,19.03
2019-04-05T05:29:38.686Z,18.07
2019-04-05T05:32:09.799Z,18.50
2019-04-05T05:34:39.050Z,18.93
2019-04-05T05:37:08.097Z,18.47
2019-04-05T05:39:37.235Z,18.77
2019-04-05T05:42:06.049Z,18.87
2019-04-05T05:44:35.689Z,18.10
2019-04-05T05:47:04.993Z,19.77
2019-04-05T05:49:34.194Z,18.67
2019-04-05T05:52:03.210Z,18.83
2019-04-05T05:54:32.422Z,19.10
2019-04-05T05:57:01.485Z,18.53
2019-04-05T05:59:30.825Z,18.60
2019-04-05T06:01:59.830Z,18.53
2019-04-05T06:04:29.084Z,19.43
2019-04-05T06:06:58.324Z,19.20
2019-04-05T06:09:27.118Z,19.03
2019-04-05T06:11:55.891Z,17.43
2019-04-05T06:14:24.910Z,17.50
2019-04-05T06:16:53.942Z,18.00
2019-04-05T06:19:22.974Z,18.50
2019-04-05T06:21:52.038Z,17.50
2019-04-05T06:24:21.186Z,17.70
2019-04-05T06:26:50.535Z,17.73
2019-04-05T06:29:19.521Z,18.70
2019-04-05T06:31:48.378Z,17.87
2019-04-05T06:34:18.807Z,18.17
2019-04-05T06:36:47.777Z,18.37
2019-04-05T06:39:16.657Z,17.80
2019-04-05T06:41:46.038Z,17.00
2019-04-05T06:44:15.584Z,17.27
2019-04-05T06:46:44.565Z,15.37
2019-04-05T06:49:13.518Z,16.70
2019-04-05T06:51:42.439Z,16.30
2019-04-05T06:54:11.780Z,16.37
2019-04-05T06:56:40.862Z,16.77
2019-04-05T06:59:10.165Z,16.73
2019-04-05T07:01:39.135Z,15.37
2019-04-05T07:04:08.044Z,15.93
2019-04-05T07:06:37.419Z,14.87
2019-04-05T07:09:06.992Z,16.73
2019-04-05T07:11:35.862Z,15.63
2019-04-05T07:14:05.055Z,16.50
2019-04-05T07:16:33.995Z,15.83
2019-04-05T07:19:03.092Z,15.63
2019-04-05T07:21:32.293Z,14.57
2019-04-05T07:24:01.192Z,15.30
2019-04-05T07:26:30.056Z,16.50
2019-04-05T07:28:58.888Z,16.27
2019-04-05T07:31:28.114Z,16.20
2019-04-05T07:33:57.304Z,15.90
2019-04-05T07:36:26.201Z,16.03
2019-04-05T07:38:55.732Z,16.50
2019-04-05T07:41:24.574Z,15.37
2019-04-05T07:43:53.609Z,15.30
2019-04-05T07:46:23.305Z,15.97
2019-04-05T07:48:52.122Z,15.13
2019-04-05T07:51:22.713Z,15.50
2019-04-05T07:53:52.217Z,16.00
2019-04-05T07:56:21.376Z,14.90
2019-04-05T07:58:50.226Z,14.37
2019-04-05T08:01:19.095Z,15.33
2019-04-05T08:03:48.107Z,15.23
2019-04-05T08:06:16.874Z,14.20
2019-04-05T08:09:13.887Z,15.57
2019-04-05T08:11:44.323Z,15.70
2019-04-05T08:14:13.941Z,14.70
2019-04-05T08:16:42.832Z,16.13
2019-04-05T08:19:11.699Z,14.87
2019-04-05T08:21:40.470Z,14.33
2019-04-05T08:24:09.426Z,14.67
2019-04-05T08:26:38.392Z,14.73
2019-04-05T08:29:07.609Z,14.10
2019-04-05T08:31:36.481Z,15.83
2019-04-05T08:34:07.392Z,15.20
2019-04-05T08:36:36.240Z,14.37
2019-04-05T08:39:07.170Z,13.67
2019-04-05T08:41:35.942Z,14.13
2019-04-05T08:44:04.957Z,15.17
2019-04-05T08:46:34.054Z,14.57
2019-04-05T08:49:10.600Z,15.17
2019-04-05T08:51:33.756Z,14.57
2019-04-05T08:54:03.498Z,14.77
2019-04-05T08:56:32.733Z,14.63
2019-04-05T08:59:01.570Z,13.90
2019-04-05T09:01:30.424Z,13.37
2019-04-05T09:03:59.436Z,13.07
2019-04-05T09:06:28.389Z,12.47
2019-04-05T09:08:57.253Z,12.03
2019-04-05T09:11:26.228Z,12.03
2019-04-05T09:13:56.323Z,12.53
2019-04-05T09:16:25.314Z,11.83
2019-04-05T09:18:54.176Z,10.90
2019-04-05T09:21:23.200Z,11.07
2019-04-05T09:23:52.059Z,11.60
2019-04-05T09:26:20.888Z,11.30
2019-04-05T09:28:49.716Z,12.13
2019-04-05T09:31:18.574Z,11.67
2019-04-05T09:33:48.653Z,11.67
2019-04-05T09:36:17.546Z,10.33
2019-04-05T09:38:46.436Z,10.43
2019-04-05T09:41:15.327Z,10.67
2019-04-05T09:43:44.184Z,10.50
2019-04-05T09:46:12.978Z,10.10
2019-04-05T09:48:41.824Z,9.90
2019-04-05T09:51:11.156Z,9.40
2019-04-05T09:53:42.131Z,10.40
2019-04-05T09:56:11.717Z,9.60
2019-04-05T09:58:41.330Z,9.47
2019-04-05T10:01:11.088Z,9.43
2019-04-05T10:03:40.430Z,10.20
2019-04-05T10:06:09.423Z,10.23
2019-04-05T10:08:38.402Z,10.70
2019-04-05T10:11:07.204Z,10.67
2019-04-05T10:13:36.097Z,10.40
2019-04-05T10:16:05.065Z,10.00
2019-04-05T10:18:34.129Z,9.90
2019-04-05T10:21:02.915Z,9.50
2019-04-05T10:23:31.740Z,8.80
2019-04-05T10:26:00.540Z,9.10
2019-04-05T10:28:29.368Z,8.30
2019-04-05T10:30:58.484Z,8.67
2019-04-05T10:33:27.470Z,8.73
2019-04-05T10:35:56.323Z,8.10
2019-04-05T10:38:25.848Z,8.30
2019-04-05T10:40:54.641Z,7.87
2019-04-05T10:43:23.579Z,7.17
2019-04-05T10:45:52.814Z,7.50
2019-04-05T10:48:21.798Z,7.13
2019-04-05T10:50:50.753Z,6.97
2019-04-05T10:53:19.600Z,7.87
2019-04-05T10:55:48.834Z,7.73
2019-04-05T10:58:17.768Z,7.43
2019-04-05T11:00:46.842Z,7.67
2019-04-05T11:03:15.697Z,7.30
2019-04-05T11:05:44.502Z,7.47
2019-04-05T11:08:13.658Z,6.40
2019-04-05T11:10:42.459Z,6.93
2019-04-05T11:13:11.742Z,7.42
2019-04-05T11:15:41.373Z,7.90
2019-04-05T11:18:10.669Z,7.93
2019-04-05T11:20:39.939Z,7.20
2019-04-05T11:23:09.616Z,7.77
2019-04-05T11:25:39.289Z,7.37
2019-04-05T11:28:08.059Z,7.23
2019-04-05T11:30:40.716Z,6.93
2019-04-05T11:33:09.668Z,6.30
2019-04-05T11:35:38.530Z,6.10
2019-04-05T11:38:07.975Z,6.00
2019-04-05T11:40:37.455Z,5.63
2019-04-05T11:43:07.889Z,5.97
2019-04-05T11:45:36.790Z,5.53
2019-04-05T11:48:06.159Z,5.73
2019-04-05T11:50:35.291Z,5.70
2019-04-05T11:53:04.153Z,5.23
2019-04-05T11:55:33.084Z,5.97
2019-04-05T11:58:02.012Z,6.07
2019-04-05T12:00:48.842Z,5.90
2019-04-05T12:03:17.954Z,6.43
2019-04-05T12:05:47.110Z,6.50
2019-04-05T12:08:16.006Z,6.50
2019-04-05T12:10:45.211Z,6.53
2019-04-05T12:13:14.282Z,6.53
2019-04-05T12:15:43.903Z,6.40
2019-04-05T12:18:16.728Z,6.87
2019-04-05T12:20:50.916Z,6.27
2019-04-05T12:23:14.764Z,6.97
2019-04-05T12:25:44.367Z,6.70
2019-04-05T12:28:13.565Z,6.73
2019-04-05T12:30:45.955Z,7.60
2019-04-05T12:33:19.068Z,7.77
2019-04-05T12:35:45.932Z,8.17
2019-04-05T12:38:33.057Z,8.23
2019-04-05T12:41:03.304Z,7.77
2019-04-05T12:43:32.715Z,7.80
2019-04-05T12:46:01.915Z,8.10
2019-04-05T12:48:30.812Z,8.10
2019-04-05T12:51:01.556Z,9.10
2019-04-05T12:53:32.477Z,9.30
2019-04-05T12:56:01.472Z,9.77
2019-04-05T12:58:32.738Z,8.57
2019-04-05T13:01:00.924Z,8.73
2019-04-05T13:03:29.802Z,8.87
2019-04-05T13:06:00.534Z,8.60
2019-04-05T13:08:29.851Z,9.43
2019-04-05T13:10:58.806Z,9.87
2019-04-05T13:13:27.773Z,9.80
2019-04-05T13:15:59.152Z,9.23
2019-04-05T13:18:30.495Z,9.37
2019-04-05T13:21:00.334Z,9.00
2019-04-05T13:23:29.043Z,10.40
2019-04-05T13:25:58.013Z,10.60
2019-04-05T13:28:26.952Z,10.30
2019-04-05T13:30:55.887Z,11.60
2019-04-05T13:33:25.063Z,10.50
2019-04-05T13:35:53.984Z,11.23
2019-04-05T13:38:22.851Z,10.43
2019-04-05T13:40:51.735Z,11.00
2019-04-05T13:43:20.609Z,10.63
2019-04-05T13:45:49.705Z,11.10
2019-04-05T13:48:18.547Z,10.97
2019-04-05T13:50:47.774Z,10.57
2019-04-05T13:53:17.214Z,10.30
2019-04-05T13:55:47.547Z,10.60
2019-04-05T13:58:17.191Z,11.27
2019-04-05T14:00:48.650Z,10.67
2019-04-05T14:03:18.589Z,10.63
2019-04-05T14:05:49.990Z,10.47
2019-04-05T14:08:20.019Z,11.00
2019-04-05T14:10:48.988Z,10.50
2019-04-05T14:13:17.969Z,11.03
2019-04-05T14:15:46.884Z,11.27
2019-04-05T14:18:16.028Z,11.87
2019-04-05T14:20:45.069Z,11.03
2019-04-05T14:23:14.332Z,11.97
2019-04-05T14:25:44.463Z,12.53
2019-04-05T14:28:13.299Z,12.30
2019-04-05T14:30:42.331Z,13.43
2019-04-05T14:33:11.284Z,13.27
2019-04-05T14:35:41.437Z,13.47
2019-04-05T14:38:11.772Z,13.13
2019-04-05T14:40:41.032Z,13.47
2019-04-05T14:43:09.898Z,13.27
2019-04-05T14:45:39.630Z,13.70
2019-04-05T14:48:08.822Z,12.90
2019-04-05T14:50:37.989Z,13.97
2019-04-05T14:53:06.806Z,13.30
2019-04-05T14:55:35.728Z,13.27
2019-04-05T14:58:06.002Z,13.17
2019-04-05T15:00:35.884Z,13.40
2019-04-05T15:03:05.258Z,13.30
2019-04-05T15:05:34.160Z,14.43
2019-04-05T15:08:03.140Z,13.47
2019-04-05T15:10:32.169Z,14.43
2019-04-05T15:13:01.344Z,14.23
2019-04-05T15:15:30.461Z,14.27
2019-04-05T15:17:59.353Z,14.60
2019-04-05T15:20:28.246Z,14.30
2019-04-05T15:22:57.694Z,14.73
2019-04-05T15:25:26.581Z,14.20
2019-04-05T15:27:56.314Z,15.17
2019-04-05T15:30:26.525Z,13.83
2019-04-05T15:32:58.443Z,12.93
2019-04-05T15:35:28.283Z,14.00
2019-04-05T15:38:01.367Z,15.20
2019-04-05T15:40:28.766Z,14.53
2019-04-05T15:42:58.947Z,13.60
2019-04-05T15:45:28.199Z,14.50
2019-04-05T15:47:57.229Z,14.27
2019-04-05T15:50:26.278Z,14.13
2019-04-05T15:52:55.206Z,14.50
2019-04-05T15:55:24.515Z,14.70
2019-04-05T15:57:53.863Z,14.70
2019-04-05T16:00:28.987Z,13.97
2019-04-05T16:03:00.394Z,14.13
2019-04-05T16:05:29.995Z,13.93
2019-04-05T16:07:59.090Z,13.80
2019-04-05T16:10:27.941Z,14.57
2019-04-05T16:12:57.178Z,14.00
2019-04-05T16:15:26.281Z,14.20
2019-04-05T16:17:55.286Z,13.57
2019-04-05T16:20:24.121Z,14.27
2019-04-05T16:22:53.240Z,15.17
2019-04-05T16:25:22.798Z,14.97
2019-04-05T16:27:51.786Z,13.90
2019-04-05T16:30:20.918Z,14.10
2019-04-05T16:32:49.830Z,14.53
2019-04-05T16:35:19.218Z,13.53
2019-04-05T16:37:48.480Z,13.50
2019-04-05T16:40:17.503Z,14.20
2019-04-05T16:42:46.697Z,14.07
2019-04-05T16:45:16.239Z,13.67
2019-04-05T16:47:46.083Z,14.33
2019-04-05T16:50:15.517Z,13.53
2019-04-05T16:52:45.431Z,14.23
2019-04-05T16:55:15.123Z,14.20
2019-04-05T16:57:44.097Z,14.67
2019-04-05T17:00:13.930Z,14.00
2019-04-05T17:02:43.103Z,13.73
2019-04-05T17:05:13.243Z,14.77
2019-04-05T17:07:42.308Z,14.07
2019-04-05T17:10:11.462Z,13.63
2019-04-05T17:12:40.543Z,14.90
2019-04-05T17:15:09.642Z,14.43
2019-04-05T17:17:38.622Z,14.30
2019-04-05T17:20:07.707Z,14.23
2019-04-05T17:22:36.664Z,14.70
2019-04-05T17:25:05.799Z,14.10
2019-04-05T17:27:34.798Z,15.03
2019-04-05T17:30:05.198Z,13.77
2019-04-05T17:32:34.069Z,14.37
2019-04-05T17:35:03.583Z,13.67
2019-04-05T17:37:32.488Z,15.03
2019-04-05T17:40:01.611Z,13.97
2019-04-05T17:42:34.630Z,15.03
2019-04-05T17:45:03.586Z,14.60
2019-04-05T17:47:32.690Z,14.60
2019-04-05T17:50:01.578Z,16.10
2019-04-05T17:52:30.743Z,15.43
2019-04-05T17:55:00.237Z,14.20
2019-04-05T17:57:29.682Z,14.57
2019-04-05T17:59:58.742Z,15.40
2019-04-05T18:02:28.567Z,16.03
2019-04-05T18:04:57.566Z,15.07
2019-04-05T18:07:27.079Z,15.37
2019-04-05T18:09:56.232Z,16.80
2019-04-05T18:12:25.171Z,16.47
2019-04-05T18:14:54.526Z,14.90
2019-04-05T18:17:23.989Z,16.00
2019-04-05T18:19:52.893Z,15.43
2019-04-05T18:22:22.189Z,15.80
2019-04-05T18:24:51.798Z,15.67
2019-04-05T18:27:20.797Z,16.00
2019-04-05T18:29:49.723Z,15.83
2019-04-05T18:32:19.195Z,16.43
2019-04-05T18:34:48.307Z,15.63
2019-04-05T18:37:17.310Z,15.37
2019-04-05T18:39:46.222Z,15.43
2019-04-05T18:42:15.367Z,14.70
2019-04-05T18:44:44.459Z,15.63
2019-04-05T18:47:13.679Z,16.02
2019-04-05T18:49:42.681Z,14.73
2019-04-05T18:52:11.790Z,15.00
2019-04-05T18:54:40.909Z,14.67
2019-04-05T18:57:09.751Z,14.47
2019-04-05T18:59:39.064Z,14.30
2019-04-05T19:02:08.123Z,14.43
2019-04-05T19:04:37.158Z,14.30
2019-04-05T19:07:06.753Z,14.33
2019-04-05T19:09:35.619Z,13.67
2019-04-05T19:12:04.482Z,14.43
2019-04-05T19:14:33.485Z,14.13
2019-04-05T19:17:02.605Z,15.30
2019-04-05T19:19:31.816Z,15.37
2019-04-05T19:22:00.780Z,15.40
2019-04-05T19:24:29.785Z,14.37
2019-04-05T19:26:58.670Z,16.00
2019-04-05T19:29:27.592Z,15.53
2019-04-05T19:49:37.599Z,16.80
2019-04-05T19:52:06.727Z,15.53
2019-04-05T19:54:35.820Z,15.77
2019-04-05T19:57:04.957Z,15.97
2019-04-05T19:59:33.864Z,17.63
2019-04-05T20:02:02.815Z,16.70
2019-04-05T20:04:31.731Z,16.00
2019-04-05T20:07:01.666Z,16.83
2019-04-05T20:09:30.618Z,16.27
2019-04-05T20:12:01.276Z,16.67
2019-04-05T20:14:30.352Z,16.80
2019-04-05T20:16:59.633Z,16.83
2019-04-05T20:19:28.757Z,16.97
2019-04-05T20:21:57.962Z,16.50
2019-04-05T20:24:27.212Z,17.60
2019-04-05T20:26:56.455Z,15.70
2019-04-05T20:29:25.467Z,16.80
2019-04-05T20:31:54.455Z,17.77
2019-04-05T20:34:23.817Z,17.20
2019-04-05T20:36:52.819Z,17.03
2019-04-05T20:39:21.707Z,17.33
2019-04-05T20:41:51.086Z,17.07
2019-04-05T20:44:19.981Z,18.03
2019-04-05T20:46:48.964Z,17.27
2019-04-05T20:49:17.926Z,18.90
2019-04-05T20:51:46.788Z,18.13
2019-04-05T20:54:24.235Z,17.50
2019-04-05T20:56:46.504Z,17.33
2019-04-05T20:59:15.797Z,16.57
2019-04-05T21:01:44.779Z,17.50
2019-04-05T21:04:13.724Z,18.47
2019-04-05T21:06:42.883Z,19.07
2019-04-05T21:09:11.789Z,20.17
2019-04-05T21:11:40.833Z,18.43
2019-04-05T21:14:09.836Z,18.73
2019-04-05T21:16:39.136Z,19.07
2019-04-05T21:19:08.120Z,19.67
2019-04-05T21:21:37.531Z,20.13
2019-04-05T21:24:06.464Z,21.40
2019-04-05T21:26:37.205Z,21.43
2019-04-05T21:29:06.294Z,20.27
2019-04-05T21:31:35.085Z,21.67
2019-04-05T21:34:04.270Z,20.50
2019-04-05T21:36:33.709Z,21.90
2019-04-05T21:39:02.697Z,20.70
2019-04-05T21:41:31.770Z,20.10
2019-04-05T21:44:00.607Z,20.57
2019-04-05T21:46:30.540Z,21.03
2019-04-05T21:48:59.732Z,21.63
2019-04-05T21:51:28.859Z,20.45
2019-04-05T21:53:57.934Z,20.97
2019-04-05T21:56:27.094Z,20.60
2019-04-05T21:58:55.991Z,21.80
2019-04-05T22:01:25.870Z,20.87
2019-04-05T22:03:55.429Z,21.03
2019-04-05T22:06:24.373Z,22.33
2019-04-05T22:08:53.371Z,21.63
2019-04-05T22:11:22.230Z,21.10
2019-04-05T22:13:52.850Z,22.97
2019-04-05T22:16:22.156Z,21.50
2019-04-05T22:18:51.595Z,22.47
2019-04-05T22:21:20.469Z,23.13
2019-04-05T22:23:49.434Z,22.40
2019-04-05T22:26:18.328Z,23.60
2019-04-05T22:28:47.087Z,23.33
2019-04-05T22:31:16.212Z,23.53
2019-04-05T22:33:45.764Z,24.37
2019-04-05T22:36:14.686Z,24.00
2019-04-05T22:38:43.660Z,24.70
2019-04-05T22:41:12.570Z,23.80
2019-04-05T22:43:42.160Z,22.47
2019-04-05T22:46:10.995Z,23.33
2019-04-05T22:48:40.519Z,22.93
2019-04-05T22:51:10.782Z,24.20
2019-04-05T22:53:40.243Z,25.20
2019-04-05T22:56:09.372Z,23.83
2019-04-05T22:58:38.274Z,24.50
2019-04-05T23:01:07.471Z,25.37
2019-04-05T23:03:36.420Z,26.77
2019-04-05T23:06:05.992Z,25.80
2019-04-05T23:08:35.211Z,24.83
2019-04-05T23:11:04.169Z,25.67
2019-04-05T23:13:33.613Z,26.60
2019-04-05T23:16:03.046Z,26.37
2019-04-05T23:18:32.282Z,26.03
2019-04-05T23:21:01.237Z,26.93
2019-04-05T23:23:30.269Z,26.30
2019-04-05T23:25:59.480Z,28.00
2019-04-05T23:28:28.366Z,26.13
2019-04-05T23:30:57.509Z,27.30
2019-04-05T23:33:26.419Z,28.30
2019-04-05T23:35:55.290Z,29.77
2019-04-05T23:38:24.402Z,26.63
2019-04-05T23:40:53.582Z,27.83
2019-04-05T23:43:22.427Z,28.07
2019-04-05T23:45:51.254Z,27.53
2019-04-05T23:48:20.182Z,27.80
2019-04-05T23:50:49.010Z,27.17
2019-04-05T23:53:17.897Z,28.17
2019-04-05T23:55:46.855Z,27.23
2019-04-05T23:58:16.330Z,27.77
